Terminal Aerodrome Forecast
Issued by NWS North Platte, NE

Home | Current Version | Previous Version | Graphics & Text | Print | Product List | Glossary On
Versions: 1 2 3 4 5 6 7 8 9 10 11 12 13 14 15 16 17 18 19 20 21 22
000
FTUS43 KLBF 231720
TAFVTN
TAF
KVTN 231720Z 2318/2418 20024G35KT P6SM BKN250
     FM240200 18020G28KT P6SM SCT250 WS020/20040KT
     FM240800 19013G19KT P6SM BKN200
     FM241400 30017G25KT P6SM SCT100=

USA.gov is the U.S. government's official web portal to all federal, state and local government web resources and services.